Time;durP1;ratioP1;P1;durP2;ratioP2;P2;SDS_P1;SDS_P2;PMS_P1;PMS_P2;Temp;Humidity;BMP_temperature;BMP_pressure;BME280_temperature;BME280_humidity;BME280_pressure;Samples;Min_cycle;Max_cycle;Signal;HPM_P1;HPM_P2
2020/12/13 00:00:56;;;;;;;33.73;18.65;;;;;;;-0.43;92.11;92192.59;1842403;77;21048;-80
2020/12/13 00:03:24;;;;;;;29.67;16.80;;;;;;;-0.44;92.13;92194.30;1801027;77;21690;-80
2020/12/13 00:05:54;;;;;;;30.27;19.00;;;;;;;-0.45;92.16;92194.06;1804476;79;21199;-81
2020/12/13 00:08:26;;;;;;;29.67;18.90;;;;;;;-0.47;92.15;92192.33;1801148;79;21145;-80
2020/12/13 00:11:28;;;;;;;31.02;19.77;;;;;;;-0.49;92.19;92192.66;1799536;79;21641;-81
2020/12/13 00:13:56;;;;;;;33.90;19.70;;;;;;;-0.50;92.25;92188.45;1805414;79;21136;-78
2020/12/13 00:16:24;;;;;;;30.97;19.48;;;;;;;-0.47;92.33;92190.99;1798205;78;21152;-79
2020/12/13 00:18:53;;;;;;;33.05;19.10;;;;;;;-0.50;92.20;92195.13;1797727;79;21164;-79
2020/12/13 00:21:26;;;;;;;32.28;20.05;;;;;;;-0.52;92.23;92204.08;1794787;79;21168;-79
2020/12/13 00:23:51;;;;;;;31.50;18.45;;;;;;;-0.52;92.30;92204.08;1796524;78;22625;-78
2020/12/13 00:26:19;;;;;;;31.70;18.10;;;;;;;-0.53;92.25;92207.86;1800959;78;21182;-79
2020/12/13 00:28:47;;;;;;;36.20;20.17;;;;;;;-0.56;92.27;92206.69;1803434;79;21168;-79
2020/12/13 00:31:16;;;;;;;33.08;20.00;;;;;;;-0.57;92.35;92203.02;1797521;78;21199;-78
2020/12/13 00:33:44;;;;;;;33.67;19.32;;;;;;;-0.56;92.46;92205.35;1814867;78;21210;-80
2020/12/13 00:36:34;;;;;;;34.38;19.37;;;;;;;-0.55;92.32;92208.79;1808928;79;21635;-80
2020/12/13 00:43:22;;;;;;;33.48;19.25;;;;;;;-0.57;92.25;92204.36;1785396;79;21174;-80
2020/12/13 00:45:50;;;;;;;28.32;16.90;;;;;;;-0.59;92.22;92201.28;1802292;79;21184;-79
2020/12/13 00:48:19;;;;;;;29.67;18.30;;;;;;;-0.62;92.27;92205.98;1801600;79;21021;-80
2020/12/13 00:50:48;;;;;;;26.57;15.58;;;;;;;-0.62;92.24;92201.98;1802054;78;22101;-80
2020/12/13 00:53:16;;;;;;;26.30;15.20;;;;;;;-0.65;92.24;92196.02;1808070;78;21196;-80
2020/12/13 00:55:48;;;;;;;25.88;15.95;;;;;;;-0.66;92.29;92199.25;1816254;78;21263;-79
2020/12/13 00:58:17;;;;;;;26.77;16.17;;;;;;;-0.67;92.31;92202.28;1811738;79;21041;-80
2020/12/13 01:01:16;;;;;;;29.80;16.05;;;;;;;-0.68;92.28;92202.05;1810717;79;21218;-79
2020/12/13 01:03:45;;;;;;;24.07;14.40;;;;;;;-0.68;92.42;92206.83;1811189;79;21591;-79
2020/12/13 01:06:20;;;;;;;23.18;13.03;;;;;;;-0.65;92.48;92206.13;1804905;78;21311;-78
2020/12/13 01:08:48;;;;;;;21.37;13.57;;;;;;;-0.63;92.37;92205.22;1792534;78;21099;-80
2020/12/13 01:11:27;;;;;;;24.60;14.83;;;;;;;-0.61;92.23;92210.20;1763705;80;21628;-81
2020/12/13 01:13:57;;;;;;;23.27;14.30;;;;;;;-0.63;92.15;92206.56;1777838;76;21115;-80
2020/12/13 01:16:28;;;;;;;20.37;13.53;;;;;;;-0.63;92.23;92201.78;1829097;77;21609;-79
2020/12/13 01:18:59;;;;;;;21.60;12.70;;;;;;;-0.64;92.14;92201.55;1765435;81;21627;-79
2020/12/13 01:21:30;;;;;;;20.25;12.93;;;;;;;-0.66;92.14;92202.48;1790648;78;21138;-80
2020/12/13 01:23:58;;;;;;;24.72;14.63;;;;;;;-0.68;92.24;92208.73;1800022;78;21225;-79
2020/12/13 01:26:27;;;;;;;24.23;13.73;;;;;;;-0.67;92.34;92200.95;1793718;79;21137;-80
2020/12/13 01:28:55;;;;;;;25.00;13.75;;;;;;;-0.65;92.26;92202.69;1789560;79;21816;-79
2020/12/13 01:31:24;;;;;;;20.17;12.50;;;;;;;-0.63;92.23;92203.12;1764810;80;21109;-79
2020/12/13 01:33:52;;;;;;;23.15;14.05;;;;;;;-0.63;92.25;92199.88;1774581;80;21614;-79
2020/12/13 01:36:23;;;;;;;22.02;13.18;;;;;;;-0.63;92.21;92195.87;1800449;78;21139;-79
2020/12/13 01:38:53;;;;;;;21.48;13.18;;;;;;;-0.62;92.12;92204.66;1824112;77;21162;-79
2020/12/13 01:41:21;;;;;;;20.08;12.40;;;;;;;-0.64;92.04;92202.35;1839013;77;21622;-80
2020/12/13 01:44:03;;;;;;;21.15;12.43;;;;;;;-0.65;91.93;92202.13;1844780;77;21146;-80
2020/12/13 01:51:05;;;;;;;22.55;13.95;;;;;;;-0.72;91.97;92191.88;1803877;78;21213;-82
2020/12/13 01:53:26;;;;;;;23.80;14.10;;;;;;;-0.74;92.09;92193.02;1831991;77;21107;-80
2020/12/13 01:55:58;;;;;;;23.85;14.25;;;;;;;-0.74;92.09;92194.34;1786599;78;21628;-80
2020/12/13 01:58:29;;;;;;;19.20;12.60;;;;;;;-0.76;92.04;92193.15;1803130;79;21080;-81
2020/12/13 02:00:59;;;;;;;24.07;14.27;;;;;;;-0.74;92.17;92194.91;1826054;77;21479;-80
2020/12/13 02:03:58;;;;;;;26.20;14.07;;;;;;;-0.75;92.12;92191.48;1831008;78;21085;-81
2020/12/13 02:10:55;;;;;;;24.07;15.05;;;;;;;-0.74;92.17;92196.25;1814520;77;21217;-81
2020/12/13 02:14:09;;;;;;;24.83;14.47;;;;;;;-0.78;92.09;92197.52;1813225;78;21671;-80
2020/12/13 02:17:01;;;;;;;21.17;13.20;;;;;;;-0.78;92.16;92190.84;1825854;78;21104;-78
2020/12/13 02:19:31;;;;;;;21.15;12.28;;;;;;;-0.78;92.20;92186.84;1828958;78;21167;-81
2020/12/13 02:22:01;;;;;;;20.35;12.43;;;;;;;-0.78;92.08;92192.74;1837858;77;21575;-78
2020/12/13 02:24:29;;;;;;;22.50;13.57;;;;;;;-0.79;92.04;92196.52;1837056;78;21327;-80
2020/12/13 02:26:58;;;;;;;21.50;12.53;;;;;;;-0.84;91.95;92189.58;1837595;77;21508;-82
2020/12/13 02:30:00;;;;;;;25.88;14.70;;;;;;;-0.85;92.07;92193.95;1840833;77;21242;-80
2020/12/13 02:32:29;;;;;;;26.03;14.57;;;;;;;-0.86;92.18;92191.08;1805987;78;21635;-79
2020/12/13 02:34:57;;;;;;;21.10;12.97;;;;;;;-0.86;92.21;92196.41;1800029;79;21094;-80
2020/12/13 02:42:13;;;;;;;21.07;13.20;;;;;;;-0.84;92.28;92194.91;1801986;78;21207;-79
2020/12/13 02:44:42;;;;;;;21.90;14.43;;;;;;;-0.85;92.08;92191.28;1818787;77;21080;-79
2020/12/13 02:47:10;;;;;;;18.33;11.10;;;;;;;-0.92;92.05;92194.58;1847877;77;21716;-80
2020/12/13 02:49:41;;;;;;;21.13;12.30;;;;;;;-0.94;92.17;92192.05;1842930;77;21589;-80
2020/12/13 02:52:10;;;;;;;23.73;12.90;;;;;;;-0.96;92.24;92191.64;1848800;77;21245;-79
2020/12/13 02:54:38;;;;;;;24.80;15.30;;;;;;;-0.96;92.27;92202.31;1844038;77;21164;-79
2020/12/13 02:57:06;;;;;;;28.35;15.80;;;;;;;-0.97;92.28;92202.11;1844484;77;21465;-79
2020/12/13 02:59:34;;;;;;;23.75;14.58;;;;;;;-0.95;92.35;92196.61;1847281;77;21203;-79
2020/12/13 03:02:03;;;;;;;26.52;14.87;;;;;;;-0.94;92.39;92202.72;1841275;77;21130;-79
2020/12/13 03:04:31;;;;;;;18.85;12.35;;;;;;;-0.92;92.37;92205.25;1847129;77;22238;-79
2020/12/13 03:06:59;;;;;;;21.97;13.00;;;;;;;-0.92;92.32;92194.58;1842758;77;21163;-79
2020/12/13 03:09:27;;;;;;;19.10;11.07;;;;;;;-0.92;92.40;92205.25;1843756;77;21175;-79
2020/12/13 03:11:56;;;;;;;17.70;10.93;;;;;;;-0.93;92.36;92206.38;1837553;77;21139;-79
2020/12/13 03:14:24;;;;;;;21.20;11.53;;;;;;;-0.93;92.38;92209.05;1818234;77;21681;-79
2020/12/13 03:16:52;;;;;;;21.35;12.43;;;;;;;-0.92;92.50;92211.92;1839954;77;21997;-79
2020/12/13 03:19:21;;;;;;;21.17;13.38;;;;;;;-0.89;92.73;92205.89;1799159;78;21134;-79
2020/12/13 03:21:49;;;;;;;18.20;11.85;;;;;;;-0.83;92.61;92207.16;1812078;78;21164;-79
2020/12/13 03:24:17;;;;;;;22.37;12.87;;;;;;;-0.83;92.35;92205.02;1809470;78;21118;-79
2020/12/13 03:26:46;;;;;;;20.00;13.10;;;;;;;-0.84;92.33;92207.49;1791592;78;21201;-79
2020/12/13 03:29:14;;;;;;;20.67;11.87;;;;;;;-0.85;92.34;92213.97;1810807;78;22080;-80
2020/12/13 03:31:42;;;;;;;20.92;12.60;;;;;;;-0.86;92.33;92215.09;1806462;79;21146;-80
2020/12/13 03:34:11;;;;;;;19.07;12.30;;;;;;;-0.87;92.38;92211.63;1793652;79;21110;-80
2020/12/13 03:36:39;;;;;;;22.55;13.30;;;;;;;-0.84;92.44;92208.26;1820471;78;21677;-79
2020/12/13 03:39:08;;;;;;;19.98;11.78;;;;;;;-0.82;92.41;92206.59;1829175;78;21140;-79
2020/12/13 03:41:36;;;;;;;21.37;12.40;;;;;;;-0.81;92.26;92208.89;1835014;78;22571;-79
2020/12/13 03:44:04;;;;;;;23.43;13.30;;;;;;;-0.82;92.16;92218.03;1829657;78;21143;-80
2020/12/13 03:58:53;;;;;;;26.53;14.73;;;;;;;-0.90;92.41;92218.23;1780673;78;21622;-81
2020/12/13 04:01:21;;;;;;;25.33;14.00;;;;;;;-0.90;92.54;92223.03;1819054;77;21585;-79
2020/12/13 04:03:49;;;;;;;22.77;13.10;;;;;;;-0.90;92.52;92221.70;1823028;78;21127;-79
2020/12/13 04:06:18;;;;;;;20.17;11.83;;;;;;;-0.85;92.65;92227.31;1834397;77;21178;-79
2020/12/13 04:08:47;;;;;;;21.45;13.32;;;;;;;-0.80;92.67;92221.11;1845587;77;21139;-79
2020/12/13 04:15:05;;;;;;;20.27;12.00;;;;;;;-0.76;92.44;92229.95;1819403;78;21195;-79
2020/12/13 04:17:35;;;;;;;21.77;13.98;;;;;;;-0.75;92.26;92220.84;1824179;78;21570;-79
2020/12/13 04:20:05;;;;;;;21.93;14.20;;;;;;;-0.78;92.15;92220.77;1858912;77;21080;-79
2020/12/13 04:22:33;;;;;;;20.48;12.55;;;;;;;-0.76;92.22;92225.95;1846986;75;21399;-78
2020/12/13 04:25:01;;;;;;;20.40;12.13;;;;;;;-0.77;92.09;92223.64;1848848;76;21631;-79
2020/12/13 04:27:29;;;;;;;25.12;14.45;;;;;;;-0.78;92.10;92226.11;1854192;77;21101;-78
2020/12/13 04:29:58;;;;;;;22.22;13.32;;;;;;;-0.80;92.13;92219.00;1853793;77;21471;-79
2020/12/13 04:32:26;;;;;;;21.00;12.88;;;;;;;-0.81;92.07;92214.80;1853357;77;21179;-79
2020/12/13 04:34:54;;;;;;;22.73;13.70;;;;;;;-0.83;92.09;92224.51;1853418;77;21123;-79
2020/12/13 04:37:25;;;;;;;20.50;11.65;;;;;;;-0.82;92.24;92225.27;1853963;77;21265;-78
2020/12/13 04:39:54;;;;;;;19.93;12.93;;;;;;;-0.79;92.26;92219.20;1853986;77;21625;-79
2020/12/13 04:42:22;;;;;;;19.30;12.25;;;;;;;-0.77;92.26;92231.08;1854825;77;21195;-79
2020/12/13 04:44:51;;;;;;;19.45;12.73;;;;;;;-0.72;92.29;92230.02;1855054;77;21155;-78
2020/12/13 04:47:19;;;;;;;19.57;12.50;;;;;;;-0.65;92.20;92220.81;1857789;75;21095;-77
2020/12/13 04:49:50;;;;;;;19.48;13.25;;;;;;;-0.63;91.88;92223.91;1852894;77;21644;-78
2020/12/13 04:52:19;;;;;;;17.98;11.43;;;;;;;-0.66;91.78;92221.17;1853682;77;21052;-79
2020/12/13 04:54:49;;;;;;;18.98;12.25;;;;;;;-0.66;91.81;92225.18;1848514;77;21064;-79
2020/12/13 04:57:18;;;;;;;20.75;13.70;;;;;;;-0.62;91.89;92222.02;1843068;77;21104;-80
2020/12/13 04:59:49;;;;;;;18.52;11.65;;;;;;;-0.58;91.79;92220.94;1853392;77;21163;-79
2020/12/13 05:02:17;;;;;;;22.13;12.03;;;;;;;-0.58;91.54;92220.17;1815001;79;21156;-80
2020/12/13 05:04:46;;;;;;;22.60;14.05;;;;;;;-0.61;91.39;92223.55;1844620;76;21151;-79
2020/12/13 05:07:16;;;;;;;22.83;14.07;;;;;;;-0.64;91.39;92219.70;1853852;77;21104;-79
2020/12/13 05:09:50;;;;;;;21.70;13.22;;;;;;;-0.69;91.36;92211.97;1851194;77;21143;-79
2020/12/13 05:12:24;;;;;;;25.25;14.63;;;;;;;-0.71;91.38;92221.44;1848067;75;21107;-78
2020/12/13 05:14:52;;;;;;;28.45;15.55;;;;;;;-0.74;91.58;92214.37;1853903;77;21625;-80
2020/12/13 05:17:20;;;;;;;30.68;16.97;;;;;;;-0.71;91.57;92214.23;1816956;79;21622;-80
2020/12/13 05:19:49;;;;;;;30.50;15.90;;;;;;;-0.70;91.65;92217.67;1807906;79;21025;-80
2020/12/13 05:22:22;;;;;;;31.80;18.15;;;;;;;-0.65;91.79;92218.14;1831089;77;21039;-79
2020/12/13 05:24:50;;;;;;;27.98;16.40;;;;;;;-0.61;91.59;92218.20;1850604;77;21626;-79
2020/12/13 05:27:23;;;;;;;26.90;16.77;;;;;;;-0.63;91.48;92217.23;1853902;77;21717;-79
2020/12/13 05:29:54;;;;;;;27.32;15.50;;;;;;;-0.60;91.47;92219.20;1853625;77;21190;-78
2020/12/13 05:32:23;;;;;;;21.95;14.30;;;;;;;-0.58;91.31;92218.84;1853390;77;21155;-78
2020/12/13 05:34:52;;;;;;;24.92;13.65;;;;;;;-0.63;91.14;92214.56;1854831;77;21134;-79
2020/12/13 05:37:21;;;;;;;24.67;14.28;;;;;;;-0.67;91.20;92212.97;1857175;75;21158;-78
2020/12/13 05:39:53;;;;;;;23.55;14.05;;;;;;;-0.69;91.15;92212.53;1854837;77;21475;-80
2020/12/13 05:42:36;;;;;;;26.23;14.65;;;;;;;-0.72;91.23;92212.67;1821859;77;21434;-79
2020/12/13 05:48:06;;;;;;;26.10;15.08;;;;;;;-0.74;91.40;92206.36;1816065;79;21127;-79
2020/12/13 05:53:14;;;;;;;25.55;15.78;;;;;;;-0.71;91.59;92212.90;1778359;77;22003;-78
2020/12/13 05:55:44;;;;;;;27.15;17.15;;;;;;;-0.69;91.49;92213.87;1793059;78;21139;-79
2020/12/13 05:58:12;;;;;;;23.77;15.10;;;;;;;-0.68;91.38;92214.84;1835104;77;21144;-79
2020/12/13 06:00:41;;;;;;;28.15;16.80;;;;;;;-0.71;91.29;92209.43;1845295;77;22233;-76
2020/12/13 06:03:10;;;;;;;24.95;15.05;;;;;;;-0.71;91.30;92214.23;1846189;77;21175;-78
2020/12/13 06:05:38;;;;;;;26.00;15.80;;;;;;;-0.74;91.14;92222.38;1831535;77;22439;-77
2020/12/13 06:08:07;;;;;;;26.30;15.60;;;;;;;-0.72;91.26;92223.91;1799984;79;21195;-77
2020/12/13 06:10:35;;;;;;;26.75;16.52;;;;;;;-0.74;91.23;92222.94;1798314;78;21234;-79
2020/12/13 06:13:06;;;;;;;25.75;15.35;;;;;;;-0.72;91.27;92226.58;1814055;78;21175;-78
2020/12/13 06:15:35;;;;;;;27.58;17.07;;;;;;;-0.68;91.37;92226.08;1822671;78;21163;-79
2020/12/13 06:18:04;;;;;;;29.02;17.70;;;;;;;-0.65;91.32;92226.72;1830298;77;21479;-78
2020/12/13 06:20:33;;;;;;;30.15;19.32;;;;;;;-0.61;91.29;92222.21;1849046;77;21127;-80
2020/12/13 06:23:01;;;;;;;33.48;20.45;;;;;;;-0.63;91.24;92229.25;1804726;79;21151;-82
2020/12/13 06:25:29;;;;;;;25.57;17.05;;;;;;;-0.62;91.33;92226.78;1759021;78;21535;-77
2020/12/13 06:27:59;;;;;;;24.77;15.60;;;;;;;-0.62;91.30;92232.69;1759195;80;21183;-77
2020/12/13 06:30:27;;;;;;;25.10;15.53;;;;;;;-0.63;91.42;92230.59;1754733;78;21198;-78
2020/12/13 06:32:56;;;;;;;24.52;15.20;;;;;;;-0.64;91.46;92226.38;1801466;78;21674;-77
2020/12/13 06:35:24;;;;;;;27.07;16.73;;;;;;;-0.63;91.51;92231.16;1747991;78;21268;-77
2020/12/13 06:37:52;;;;;;;28.87;16.48;;;;;;;-0.60;91.70;92231.76;1793668;78;21715;-81
2020/12/13 06:40:21;;;;;;;26.75;16.42;;;;;;;-0.55;91.60;92231.48;1741567;78;21164;-79
2020/12/13 06:42:51;;;;;;;25.50;16.93;;;;;;;-0.50;91.55;92233.86;1831516;78;21195;-78
2020/12/13 06:45:19;;;;;;;25.37;15.20;;;;;;;-0.48;91.50;92228.95;1830679;78;21549;-79
2020/12/13 06:47:49;;;;;;;33.02;17.82;;;;;;;-0.47;91.33;92224.38;1828704;77;21210;-83
2020/12/13 06:50:24;;;;;;;37.42;20.30;;;;;;;-0.48;91.28;92227.61;1855803;77;21154;-78
2020/12/13 06:52:54;;;;;;;46.92;24.00;;;;;;;-0.48;91.31;92225.52;1841764;77;21594;-78
2020/12/13 06:55:32;;;;;;;53.75;30.82;;;;;;;-0.51;91.30;92232.32;1852914;77;21849;-78
2020/12/13 06:58:00;;;;;;;43.63;24.30;;;;;;;-0.55;91.31;92226.15;1845261;77;21052;-76
2020/12/13 07:00:28;;;;;;;59.45;32.58;;;;;;;-0.58;91.49;92233.52;1845581;77;21442;-78
2020/12/13 07:02:58;;;;;;;62.15;35.28;;;;;;;-0.59;91.51;92233.33;1780368;79;21184;-78
2020/12/13 07:05:29;;;;;;;50.12;28.83;;;;;;;-0.57;91.77;92236.39;1806367;79;21231;-78
2020/12/13 07:07:57;;;;;;;53.25;30.90;;;;;;;-0.51;91.86;92245.11;1851274;77;21194;-79
2020/12/13 07:10:27;;;;;;;46.48;28.23;;;;;;;-0.50;91.56;92247.21;1856175;77;21162;-78
2020/12/13 07:12:57;;;;;;;42.15;24.82;;;;;;;-0.51;91.51;92247.01;1802303;78;21170;-77
2020/12/13 07:15:35;;;;;;;38.78;23.55;;;;;;;-0.51;91.60;92244.34;1829066;77;21147;-75
2020/12/13 07:17:59;;;;;;;35.80;21.82;;;;;;;-0.52;91.74;92245.47;1839706;77;21318;-79
2020/12/13 07:20:27;;;;;;;25.48;17.10;;;;;;;-0.51;91.79;92247.01;1794379;78;21324;-76
2020/12/13 07:22:59;;;;;;;20.90;15.98;;;;;;;-0.51;91.88;92247.78;1811630;78;21224;-79
2020/12/13 07:25:28;;;;;;;21.68;13.95;;;;;;;-0.48;92.01;92244.97;1827881;78;21170;-79
2020/12/13 07:27:56;;;;;;;16.85;11.05;;;;;;;-0.44;92.00;92248.48;1781402;78;21180;-79
2020/12/13 07:30:24;;;;;;;15.32;10.60;;;;;;;-0.38;91.93;92247.61;1742902;78;21151;-79
2020/12/13 07:32:53;;;;;;;17.40;10.40;;;;;;;-0.34;91.83;92249.77;1813212;77;22457;-77
2020/12/13 07:35:21;;;;;;;15.63;10.18;;;;;;;-0.33;91.75;92248.10;1852055;77;21214;-78
2020/12/13 07:37:50;;;;;;;17.75;10.98;;;;;;;-0.35;91.66;92253.02;1783385;78;21186;-84
2020/12/13 07:40:20;;;;;;;19.37;11.18;;;;;;;-0.39;91.48;92250.84;1795342;78;21210;-84
2020/12/13 07:42:57;;;;;;;17.62;11.28;;;;;;;-0.43;91.53;92249.24;1734829;82;21272;-79
2020/12/13 07:45:25;;;;;;;18.40;11.03;;;;;;;-0.48;91.49;92246.30;1790071;78;21212;-85
2020/12/13 07:48:00;;;;;;;18.60;12.03;;;;;;;-0.53;91.61;92247.91;1814357;77;21614;-83
2020/12/13 07:50:34;;;;;;;18.53;11.70;;;;;;;-0.57;91.75;92247.08;1792563;79;21155;-81
2020/12/13 07:53:06;;;;;;;17.83;12.00;;;;;;;-0.60;91.96;92256.59;1793293;78;21192;-84
2020/12/13 07:55:43;;;;;;;19.00;12.15;;;;;;;-0.61;92.07;92244.34;1795358;77;21168;-84
2020/12/13 07:58:11;;;;;;;17.73;11.73;;;;;;;-0.61;92.20;92246.24;1816465;77;22282;-81
2020/12/13 08:00:41;;;;;;;18.15;11.00;;;;;;;-0.60;92.39;92259.26;1760180;80;21694;-87
2020/12/13 08:03:23;;;;;;;15.40;10.10;;;;;;;-0.54;92.50;92261.06;1790115;77;21184;-82
2020/12/13 08:06:02;;;;;;;17.15;11.30;;;;;;;-0.52;92.46;92249.48;1843966;77;21493;-81
2020/12/13 08:08:43;;;;;;;21.97;13.13;;;;;;;-0.48;92.44;92245.54;1774441;80;21151;-80
2020/12/13 08:11:12;;;;;;;21.25;13.03;;;;;;;-0.45;92.49;92241.59;1849393;76;21365;-77
2020/12/13 08:13:48;;;;;;;18.55;12.68;;;;;;;-0.39;92.56;92244.17;1793660;77;21247;-77
2020/12/13 08:16:17;;;;;;;24.25;13.88;;;;;;;-0.34;92.47;92253.25;1812179;78;21410;-77
2020/12/13 08:18:50;;;;;;;26.30;16.77;;;;;;;-0.32;92.37;92254.98;1839266;76;22004;-77
2020/12/13 08:21:29;;;;;;;26.68;16.02;;;;;;;-0.30;92.37;92260.75;1850169;77;21567;-78
2020/12/13 08:23:57;;;;;;;21.23;14.25;;;;;;;-0.27;92.34;92265.36;1819704;77;21370;-79
2020/12/13 08:26:25;;;;;;;24.00;14.07;;;;;;;-0.25;92.31;92269.03;1851041;77;21158;-78
2020/12/13 08:28:53;;;;;;;19.60;12.70;;;;;;;-0.26;92.31;92268.27;1849670;77;21196;-80
2020/12/13 08:31:24;;;;;;;23.10;13.10;;;;;;;-0.22;92.41;92269.67;1788207;77;21211;-78
2020/12/13 08:34:02;;;;;;;18.05;11.88;;;;;;;-0.15;92.47;92268.99;1755875;80;21599;-78
2020/12/13 08:36:30;;;;;;;16.10;10.63;;;;;;;-0.07;92.39;92279.47;1784144;78;21201;-76
2020/12/13 08:39:01;;;;;;;20.23;12.47;;;;;;;-0.01;92.22;92283.94;1821272;78;21150;-78
2020/12/13 08:41:29;;;;;;;18.85;11.28;;;;;;;0.02;92.06;92285.14;1835612;77;21150;-78
2020/12/13 08:43:57;;;;;;;17.17;10.98;;;;;;;0.02;91.95;92277.12;1845844;77;21179;-77
2020/12/13 08:46:32;;;;;;;19.02;11.73;;;;;;;0.03;91.76;92289.35;1845162;77;21167;-78
2020/12/13 08:49:01;;;;;;;15.32;10.03;;;;;;;0.03;91.82;92282.66;1850011;77;21190;-79
2020/12/13 08:51:29;;;;;;;15.70;9.90;;;;;;;0.05;91.66;92287.11;1849096;76;21869;-77
2020/12/13 08:54:04;;;;;;;14.28;8.98;;;;;;;0.04;91.51;92285.54;1805351;79;21183;-77
2020/12/13 08:56:33;;;;;;;16.10;9.90;;;;;;;0.04;91.41;92285.00;1797354;78;21219;-78
2020/12/13 08:59:02;;;;;;;19.07;11.33;;;;;;;0.03;91.39;92287.44;1806243;78;21045;-79
2020/12/13 09:01:41;;;;;;;15.43;10.55;;;;;;;0.06;91.29;92288.64;1816113;78;22091;-80
2020/12/13 09:04:21;;;;;;;18.12;11.10;;;;;;;0.04;91.11;92292.22;1826841;77;21195;-78
2020/12/13 09:07:00;;;;;;;16.60;10.58;;;;;;;0.04;91.02;92293.56;1804538;78;21165;-81
2020/12/13 09:09:34;;;;;;;14.83;10.35;;;;;;;0.02;91.00;92297.17;1804834;78;21197;-80
2020/12/13 09:12:10;;;;;;;18.07;11.38;;;;;;;-0.01;91.01;92291.95;1821707;78;21081;-78
2020/12/13 09:14:38;;;;;;;16.67;11.60;;;;;;;-0.01;91.06;92289.28;1815404;77;22083;-79
2020/12/13 09:17:06;;;;;;;14.87;10.80;;;;;;;-0.01;90.99;92295.41;1792724;78;21081;-78
2020/12/13 09:19:55;;;;;;;15.25;10.25;;;;;;;-0.03;91.00;92292.33;1802802;77;21158;-77
2020/12/13 09:22:21;;;;;;;14.50;10.43;;;;;;;-0.03;91.11;92290.22;1786189;79;21181;-81
2020/12/13 09:24:50;;;;;;;18.12;11.15;;;;;;;-0.03;91.16;92294.23;1802231;78;21115;-81
2020/12/13 09:27:23;;;;;;;16.52;11.08;;;;;;;-0.02;91.13;92294.43;1766727;81;21365;-80
2020/12/13 09:29:51;;;;;;;15.53;11.20;;;;;;;0.00;91.17;92292.19;1788389;80;21130;-80
2020/12/13 09:32:22;;;;;;;15.65;10.53;;;;;;;0.03;91.02;92289.35;1796502;78;21156;-79
2020/12/13 09:34:50;;;;;;;13.40;9.63;;;;;;;0.02;90.95;92285.91;1788116;79;21188;-81
2020/12/13 09:37:19;;;;;;;14.07;9.73;;;;;;;0.01;90.84;92288.95;1781518;78;21686;-82
2020/12/13 09:39:48;;;;;;;14.43;9.03;;;;;;;0.00;90.83;92290.86;1732770;82;22028;-80
2020/12/13 09:42:17;;;;;;;13.72;9.28;;;;;;;-0.04;90.85;92291.33;1785513;79;21682;-83
2020/12/13 09:44:49;;;;;;;12.05;9.13;;;;;;;-0.03;90.98;92295.00;1715144;81;21236;-81
2020/12/13 09:47:15;;;;;;;13.32;8.63;;;;;;;-0.03;91.02;92288.31;1790570;79;21190;-80
2020/12/13 09:49:44;;;;;;;12.18;8.40;;;;;;;0.03;90.98;92292.79;1816557;77;21190;-79
2020/12/13 09:52:13;;;;;;;9.98;8.10;;;;;;;0.06;90.82;92289.41;1835894;76;21784;-79
2020/12/13 09:54:42;;;;;;;12.35;9.40;;;;;;;0.08;90.74;92289.84;1823597;78;21208;-79
2020/12/13 09:57:14;;;;;;;12.37;8.55;;;;;;;0.08;90.60;92291.17;1765897;80;21189;-78
2020/12/13 09:59:43;;;;;;;11.05;8.00;;;;;;;0.07;90.55;92293.63;1784609;79;21665;-78
2020/12/13 10:02:11;;;;;;;15.25;9.78;;;;;;;0.06;90.58;92296.09;1791637;79;21213;-78
2020/12/13 10:04:39;;;;;;;19.07;10.48;;;;;;;0.06;90.65;92294.76;1795536;79;22061;-79
2020/12/13 10:08:54;;;;;;;16.67;10.25;;;;;;;0.08;90.76;92292.52;1802526;77;21176;-80
2020/12/13 10:09:56;;;;;;;15.53;9.50;;;;;;;0.08;90.60;92292.52;1815202;78;21264;-79
2020/12/13 10:12:24;;;;;;;16.60;9.58;;;;;;;0.07;90.59;92282.16;1810483;79;21723;-78
2020/12/13 10:14:53;;;;;;;13.95;9.90;;;;;;;0.04;90.62;92278.32;1803164;78;21150;-78
2020/12/13 10:17:21;;;;;;;16.45;10.35;;;;;;;0.03;90.61;92286.11;1814861;77;21187;-79
2020/12/13 10:19:49;;;;;;;14.38;8.55;;;;;;;0.05;90.75;92284.43;1802903;78;21200;-78
2020/12/13 10:22:18;;;;;;;12.88;8.53;;;;;;;0.06;90.74;92285.41;1791386;79;21205;-79
2020/12/13 10:24:47;;;;;;;14.73;9.35;;;;;;;0.06;90.55;92293.98;1800926;79;21251;-79
2020/12/13 10:27:15;;;;;;;14.47;8.50;;;;;;;0.04;90.57;92285.00;1764489;81;21222;-81
2020/12/13 10:29:43;;;;;;;13.72;8.75;;;;;;;0.05;90.57;92286.53;1792763;79;21660;-80
2020/12/13 10:32:11;;;;;;;12.82;8.95;;;;;;;0.05;90.47;92284.43;1798715;78;21193;-77
2020/12/13 10:34:40;;;;;;;11.08;8.50;;;;;;;0.03;90.43;92275.98;1816740;77;21183;-79
2020/12/13 10:37:08;;;;;;;12.58;8.40;;;;;;;0.02;90.45;92279.80;1811078;78;21309;-79
2020/12/13 10:39:38;;;;;;;11.97;8.30;;;;;;;0.01;90.46;92275.59;1766917;79;21166;-82
2020/12/13 10:42:07;;;;;;;14.75;10.25;;;;;;;0.01;90.61;92276.35;1801713;79;21910;-84
2020/12/13 10:44:35;;;;;;;12.70;8.23;;;;;;;0.06;90.67;92277.95;1817490;77;21151;-80
2020/12/13 10:47:03;;;;;;;12.35;9.15;;;;;;;0.09;90.58;92274.00;1810268;78;21648;-79
2020/12/13 10:49:31;;;;;;;14.90;9.53;;;;;;;0.10;90.48;92271.53;1799550;77;21120;-81
2020/12/13 10:52:01;;;;;;;14.93;10.25;;;;;;;0.11;90.40;92270.39;1831589;78;21441;-80
2020/12/13 10:54:30;;;;;;;16.93;10.98;;;;;;;0.09;90.38;92271.89;1750607;82;21824;-79
2020/12/13 10:56:58;;;;;;;15.53;10.58;;;;;;;0.09;90.52;92273.23;1768142;80;21190;-78
2020/12/13 10:59:27;;;;;;;16.80;10.98;;;;;;;0.09;90.49;92266.55;1769812;80;21158;-80
2020/12/13 11:01:56;;;;;;;18.37;12.00;;;;;;;0.08;90.53;92268.45;1787472;79;21196;-78
2020/12/13 11:04:25;;;;;;;17.80;12.68;;;;;;;0.08;90.49;92268.45;1798518;79;21162;-80
2020/12/13 11:06:54;;;;;;;21.93;14.95;;;;;;;0.07;90.55;92276.25;1799567;79;21999;-79
2020/12/13 11:09:22;;;;;;;20.65;14.85;;;;;;;0.07;90.58;92280.25;1837151;77;21041;-79
2020/12/13 11:11:50;;;;;;;21.37;14.30;;;;;;;0.06;90.70;92276.05;1804113;78;21106;-79
2020/12/13 11:14:19;;;;;;;23.70;15.50;;;;;;;0.08;90.82;92276.47;1808725;77;21168;-78
2020/12/13 11:16:47;;;;;;;22.60;16.40;;;;;;;0.10;90.80;92274.77;1841618;77;21129;-83
2020/12/13 11:19:16;;;;;;;25.77;15.85;;;;;;;0.10;90.80;92280.12;1833892;77;21650;-78
2020/12/13 11:21:46;;;;;;;21.37;12.58;;;;;;;0.11;90.90;92282.42;1784477;80;21087;-79
2020/12/13 11:24:14;;;;;;;21.95;13.68;;;;;;;0.16;90.90;92286.15;1753323;80;21084;-79
2020/12/13 11:26:47;;;;;;;16.80;11.40;;;;;;;0.19;90.99;92283.34;1792419;79;21153;-78
2020/12/13 11:29:15;;;;;;;16.17;11.60;;;;;;;0.26;90.80;92288.00;1801352;79;21126;-80
2020/12/13 11:31:45;;;;;;;15.68;11.15;;;;;;;0.23;90.41;92283.59;1811120;77;21610;-81
2020/12/13 11:34:13;;;;;;;15.53;10.45;;;;;;;0.21;90.35;92292.52;1831675;77;21172;-79
2020/12/13 11:36:41;;;;;;;15.30;10.25;;;;;;;0.17;90.29;92291.70;1794697;79;21141;-79
2020/12/13 11:39:09;;;;;;;13.22;9.30;;;;;;;0.17;90.37;92302.39;1838500;77;21173;-77
2020/12/13 11:41:38;;;;;;;15.43;10.48;;;;;;;0.16;90.47;92305.44;1843075;77;21173;-78
2020/12/13 11:44:06;;;;;;;11.83;8.70;;;;;;;0.15;90.51;92292.63;1837236;77;21294;-78
2020/12/13 11:46:35;;;;;;;13.85;9.55;;;;;;;0.17;90.57;92295.70;1833719;77;21157;-76
2020/12/13 11:49:03;;;;;;;15.85;10.58;;;;;;;0.17;90.46;92289.02;1843189;77;21144;-80
2020/12/13 11:51:33;;;;;;;13.13;9.20;;;;;;;0.16;90.40;92290.16;1827082;77;21237;-80
2020/12/13 11:54:01;;;;;;;14.15;10.32;;;;;;;0.18;90.56;92296.47;1835941;77;21101;-77
2020/12/13 11:56:29;;;;;;;19.37;11.15;;;;;;;0.20;90.50;92292.33;1825532;77;21251;-80
2020/12/13 11:58:58;;;;;;;16.52;11.97;;;;;;;0.23;90.38;92290.84;1823969;77;21157;-77
2020/12/13 12:01:27;;;;;;;18.73;11.03;;;;;;;0.20;90.14;92288.31;1831759;77;21046;-80
2020/12/13 12:03:55;;;;;;;15.45;10.78;;;;;;;0.17;90.18;92291.70;1829324;77;21197;-79
2020/12/13 12:06:23;;;;;;;15.08;10.08;;;;;;;0.14;90.23;92295.65;1848636;77;21160;-78
2020/12/13 12:08:53;;;;;;;13.32;10.03;;;;;;;0.15;90.30;92297.98;1829610;77;21429;-76
2020/12/13 12:11:25;;;;;;;14.95;10.55;;;;;;;0.15;90.31;92299.31;1823969;77;21211;-79
2020/12/13 12:13:55;;;;;;;17.35;11.63;;;;;;;0.16;90.42;92306.20;1810405;78;21640;-76